sensor_id;sensor_type;location;lat;lon;timestamp;temperature;humidity
6822;DHT22;3449;48.728;8.968;2024-01-25T00:02:23;8.20;97.00
6822;DHT22;3449;48.728;8.968;2024-01-25T00:04:51;8.20;97.00
6822;DHT22;3449;48.728;8.968;2024-01-25T00:07:18;8.30;99.90
6822;DHT22;3449;48.728;8.968;2024-01-25T00:09:45;8.20;99.90
6822;DHT22;3449;48.728;8.968;2024-01-25T00:12:12;8.20;99.90
6822;DHT22;3449;48.728;8.968;2024-01-25T00:14:39;8.20;99.90
6822;DHT22;3449;48.728;8.968;2024-01-25T00:17:06;8.20;99.90
6822;DHT22;3449;48.728;8.968;2024-01-25T00:19:33;8.20;99.90
6822;DHT22;3449;48.728;8.968;2024-01-25T00:22:02;8.30;99.90
6822;DHT22;3449;48.728;8.968;2024-01-25T00:24:28;8.30;99.90
6822;DHT22;3449;48.728;8.968;2024-01-25T00:26:55;8.30;99.90
6822;DHT22;3449;48.728;8.968;2024-01-25T00:29:22;8.30;99.90
6822;DHT22;3449;48.728;8.968;2024-01-25T00:31:49;8.30;99.90
6822;DHT22;3449;48.728;8.968;2024-01-25T00:34:17;8.30;99.90
6822;DHT22;3449;48.728;8.968;2024-01-25T00:36:44;8.30;99.90
6822;DHT22;3449;48.728;8.968;2024-01-25T00:39:13;8.30;99.90
6822;DHT22;3449;48.728;8.968;2024-01-25T00:41:40;8.20;99.90
6822;DHT22;3449;48.728;8.968;2024-01-25T00:44:08;8.20;99.90
6822;DHT22;3449;48.728;8.968;2024-01-25T00:46:36;8.30;99.90
6822;DHT22;3449;48.728;8.968;2024-01-25T00:49:03;8.30;99.90
6822;DHT22;3449;48.728;8.968;2024-01-25T00:51:31;8.30;99.90
6822;DHT22;3449;48.728;8.968;2024-01-25T00:53:58;8.30;99.90
6822;DHT22;3449;48.728;8.968;2024-01-25T00:56:27;8.30;99.90
6822;DHT22;3449;48.728;8.968;2024-01-25T00:58:54;8.30;99.90
6822;DHT22;3449;48.728;8.968;2024-01-25T01:01:21;8.30;99.90
6822;DHT22;3449;48.728;8.968;2024-01-25T01:03:51;8.30;99.90
6822;DHT22;3449;48.728;8.968;2024-01-25T01:06:19;8.30;99.90
6822;DHT22;3449;48.728;8.968;2024-01-25T01:08:46;8.30;99.90
6822;DHT22;3449;48.728;8.968;2024-01-25T01:11:13;8.30;99.90
6822;DHT22;3449;48.728;8.968;2024-01-25T01:13:41;8.30;99.90
6822;DHT22;3449;48.728;8.968;2024-01-25T01:16:08;8.30;99.90
6822;DHT22;3449;48.728;8.968;2024-01-25T01:18:35;8.20;99.90
6822;DHT22;3449;48.728;8.968;2024-01-25T01:21:04;8.20;99.90
6822;DHT22;3449;48.728;8.968;2024-01-25T01:23:31;8.20;99.90
6822;DHT22;3449;48.728;8.968;2024-01-25T01:25:58;8.20;99.90
6822;DHT22;3449;48.728;8.968;2024-01-25T01:28:24;8.20;99.90
6822;DHT22;3449;48.728;8.968;2024-01-25T01:30:53;8.20;99.90
6822;DHT22;3449;48.728;8.968;2024-01-25T01:33:19;8.10;99.90
6822;DHT22;3449;48.728;8.968;2024-01-25T01:35:46;8.20;99.90
6822;DHT22;3449;48.728;8.968;2024-01-25T01:38:13;8.20;99.90
6822;DHT22;3449;48.728;8.968;2024-01-25T01:40:40;8.10;99.90
6822;DHT22;3449;48.728;8.968;2024-01-25T01:43:07;8.10;99.90
6822;DHT22;3449;48.728;8.968;2024-01-25T01:45:33;8.10;99.90
6822;DHT22;3449;48.728;8.968;2024-01-25T01:48:02;8.20;99.90
6822;DHT22;3449;48.728;8.968;2024-01-25T01:50:28;8.10;99.90
6822;DHT22;3449;48.728;8.968;2024-01-25T01:52:55;8.20;99.90
6822;DHT22;3449;48.728;8.968;2024-01-25T01:55:22;8.10;99.90
6822;DHT22;3449;48.728;8.968;2024-01-25T01:57:49;8.20;99.90
6822;DHT22;3449;48.728;8.968;2024-01-25T02:00:17;8.10;99.90
6822;DHT22;3449;48.728;8.968;2024-01-25T02:02:44;8.10;99.90
6822;DHT22;3449;48.728;8.968;2024-01-25T02:05:13;8.00;99.90
6822;DHT22;3449;48.728;8.968;2024-01-25T02:07:40;8.00;99.90
6822;DHT22;3449;48.728;8.968;2024-01-25T02:10:08;8.00;99.90
6822;DHT22;3449;48.728;8.968;2024-01-25T02:12:35;8.00;99.90
6822;DHT22;3449;48.728;8.968;2024-01-25T02:15:02;8.00;99.90
6822;DHT22;3449;48.728;8.968;2024-01-25T02:17:29;8.00;99.90
6822;DHT22;3449;48.728;8.968;2024-01-25T02:19:56;8.00;99.90
6822;DHT22;3449;48.728;8.968;2024-01-25T02:22:25;8.00;99.90
6822;DHT22;3449;48.728;8.968;2024-01-25T02:24:51;8.10;99.90
6822;DHT22;3449;48.728;8.968;2024-01-25T02:27:18;8.10;99.90
6822;DHT22;3449;48.728;8.968;2024-01-25T02:29:45;8.10;99.90
6822;DHT22;3449;48.728;8.968;2024-01-25T02:32:12;8.00;99.90
6822;DHT22;3449;48.728;8.968;2024-01-25T02:34:39;8.10;99.90
6822;DHT22;3449;48.728;8.968;2024-01-25T02:37:05;8.00;99.90
6822;DHT22;3449;48.728;8.968;2024-01-25T02:39:34;8.00;99.90
6822;DHT22;3449;48.728;8.968;2024-01-25T02:42:00;7.90;99.90
6822;DHT22;3449;48.728;8.968;2024-01-25T02:44:27;7.90;99.90
6822;DHT22;3449;48.728;8.968;2024-01-25T02:46:54;7.80;99.90
6822;DHT22;3449;48.728;8.968;2024-01-25T02:49:21;7.70;99.90
6822;DHT22;3449;48.728;8.968;2024-01-25T02:51:50;7.70;99.90
6822;DHT22;3449;48.728;8.968;2024-01-25T02:54:16;7.60;99.90
6822;DHT22;3449;48.728;8.968;2024-01-25T02:56:44;7.60;99.90
6822;DHT22;3449;48.728;8.968;2024-01-25T02:59:11;7.60;99.90
6822;DHT22;3449;48.728;8.968;2024-01-25T03:01:40;7.50;99.90
6822;DHT22;3449;48.728;8.968;2024-01-25T03:04:07;7.50;99.90
6822;DHT22;3449;48.728;8.968;2024-01-25T03:06:34;7.50;99.90
6822;DHT22;3449;48.728;8.968;2024-01-25T03:09:01;7.40;99.90
6822;DHT22;3449;48.728;8.968;2024-01-25T03:11:30;7.40;99.90
6822;DHT22;3449;48.728;8.968;2024-01-25T03:13:58;7.40;99.90
6822;DHT22;3449;48.728;8.968;2024-01-25T03:16:25;7.50;99.90
6822;DHT22;3449;48.728;8.968;2024-01-25T03:18:52;7.40;99.90
6822;DHT22;3449;48.728;8.968;2024-01-25T03:21:18;7.40;99.90
6822;DHT22;3449;48.728;8.968;2024-01-25T03:23:45;7.40;99.90
6822;DHT22;3449;48.728;8.968;2024-01-25T03:26:12;7.40;99.90
6822;DHT22;3449;48.728;8.968;2024-01-25T03:28:39;7.40;99.90
6822;DHT22;3449;48.728;8.968;2024-01-25T03:31:07;7.40;99.90
6822;DHT22;3449;48.728;8.968;2024-01-25T03:33:34;7.40;99.90
6822;DHT22;3449;48.728;8.968;2024-01-25T03:36:02;7.40;99.90
6822;DHT22;3449;48.728;8.968;2024-01-25T03:38:29;7.40;99.90
6822;DHT22;3449;48.728;8.968;2024-01-25T03:40:56;7.40;99.90
6822;DHT22;3449;48.728;8.968;2024-01-25T03:43:24;7.40;99.90
6822;DHT22;3449;48.728;8.968;2024-01-25T03:45:51;7.30;99.90
6822;DHT22;3449;48.728;8.968;2024-01-25T03:48:19;7.30;99.90
6822;DHT22;3449;48.728;8.968;2024-01-25T03:50:47;7.40;99.90
6822;DHT22;3449;48.728;8.968;2024-01-25T03:53:14;7.40;99.90
6822;DHT22;3449;48.728;8.968;2024-01-25T03:55:41;7.40;99.90
6822;DHT22;3449;48.728;8.968;2024-01-25T03:58:08;7.40;99.90
6822;DHT22;3449;48.728;8.968;2024-01-25T04:00:35;7.40;99.90
6822;DHT22;3449;48.728;8.968;2024-01-25T04:03:02;7.40;99.90
6822;DHT22;3449;48.728;8.968;2024-01-25T04:05:30;7.40;99.90
6822;DHT22;3449;48.728;8.968;2024-01-25T04:07:57;7.40;99.90
6822;DHT22;3449;48.728;8.968;2024-01-25T04:10:24;7.50;99.90
6822;DHT22;3449;48.728;8.968;2024-01-25T04:12:51;7.40;99.90
6822;DHT22;3449;48.728;8.968;2024-01-25T04:15:18;7.40;99.90
6822;DHT22;3449;48.728;8.968;2024-01-25T04:17:45;7.40;99.90
6822;DHT22;3449;48.728;8.968;2024-01-25T04:20:12;7.40;99.90
6822;DHT22;3449;48.728;8.968;2024-01-25T04:22:40;7.40;99.90
6822;DHT22;3449;48.728;8.968;2024-01-25T04:25:07;7.50;99.90
6822;DHT22;3449;48.728;8.968;2024-01-25T04:27:36;7.40;99.90
6822;DHT22;3449;48.728;8.968;2024-01-25T04:30:04;7.40;99.90
6822;DHT22;3449;48.728;8.968;2024-01-25T04:32:31;7.40;99.90
6822;DHT22;3449;48.728;8.968;2024-01-25T04:34:57;7.40;99.90
6822;DHT22;3449;48.728;8.968;2024-01-25T04:37:24;7.30;99.90
6822;DHT22;3449;48.728;8.968;2024-01-25T04:39:53;7.30;99.90
6822;DHT22;3449;48.728;8.968;2024-01-25T04:42:19;7.30;99.90
6822;DHT22;3449;48.728;8.968;2024-01-25T04:44:46;7.20;99.90
6822;DHT22;3449;48.728;8.968;2024-01-25T04:47:13;7.20;99.90
6822;DHT22;3449;48.728;8.968;2024-01-25T04:49:40;7.30;99.90
6822;DHT22;3449;48.728;8.968;2024-01-25T04:52:07;7.30;99.90
6822;DHT22;3449;48.728;8.968;2024-01-25T04:54:34;7.20;99.90
6822;DHT22;3449;48.728;8.968;2024-01-25T04:57:02;7.30;99.90
6822;DHT22;3449;48.728;8.968;2024-01-25T04:59:32;7.20;99.90
6822;DHT22;3449;48.728;8.968;2024-01-25T05:01:59;7.30;99.90
6822;DHT22;3449;48.728;8.968;2024-01-25T05:04:28;7.30;99.90
6822;DHT22;3449;48.728;8.968;2024-01-25T05:06:57;7.20;99.90
6822;DHT22;3449;48.728;8.968;2024-01-25T05:09:23;7.20;99.90
6822;DHT22;3449;48.728;8.968;2024-01-25T05:11:50;7.20;99.90
6822;DHT22;3449;48.728;8.968;2024-01-25T05:14:18;7.20;99.90
6822;DHT22;3449;48.728;8.968;2024-01-25T05:16:45;7.20;99.90
6822;DHT22;3449;48.728;8.968;2024-01-25T05:19:12;7.10;99.90
6822;DHT22;3449;48.728;8.968;2024-01-25T05:21:39;7.10;99.90
6822;DHT22;3449;48.728;8.968;2024-01-25T05:24:06;7.10;99.90
6822;DHT22;3449;48.728;8.968;2024-01-25T05:26:33;7.00;99.90
6822;DHT22;3449;48.728;8.968;2024-01-25T05:29:00;7.00;99.90
6822;DHT22;3449;48.728;8.968;2024-01-25T05:31:28;6.90;99.90
6822;DHT22;3449;48.728;8.968;2024-01-25T05:33:55;6.80;99.90
6822;DHT22;3449;48.728;8.968;2024-01-25T05:36:22;6.70;99.90
6822;DHT22;3449;48.728;8.968;2024-01-25T05:38:49;6.70;99.90
6822;DHT22;3449;48.728;8.968;2024-01-25T05:41:16;6.60;99.90
6822;DHT22;3449;48.728;8.968;2024-01-25T05:43:44;6.60;99.90
6822;DHT22;3449;48.728;8.968;2024-01-25T05:46:11;6.50;99.90
6822;DHT22;3449;48.728;8.968;2024-01-25T05:48:40;6.40;99.90
6822;DHT22;3449;48.728;8.968;2024-01-25T05:51:07;6.40;99.90
6822;DHT22;3449;48.728;8.968;2024-01-25T05:53:34;6.40;99.90
6822;DHT22;3449;48.728;8.968;2024-01-25T05:56:01;6.30;99.90
6822;DHT22;3449;48.728;8.968;2024-01-25T05:58:29;6.30;99.90
6822;DHT22;3449;48.728;8.968;2024-01-25T06:00:56;6.20;99.90
6822;DHT22;3449;48.728;8.968;2024-01-25T06:03:23;6.30;99.90
6822;DHT22;3449;48.728;8.968;2024-01-25T06:05:51;6.20;99.90
6822;DHT22;3449;48.728;8.968;2024-01-25T06:08:18;6.20;99.90
6822;DHT22;3449;48.728;8.968;2024-01-25T06:10:46;6.10;99.90
6822;DHT22;3449;48.728;8.968;2024-01-25T06:13:13;6.00;99.90
6822;DHT22;3449;48.728;8.968;2024-01-25T06:15:41;5.90;99.90
6822;DHT22;3449;48.728;8.968;2024-01-25T06:18:08;5.90;99.90
6822;DHT22;3449;48.728;8.968;2024-01-25T06:20:35;5.80;99.90
6822;DHT22;3449;48.728;8.968;2024-01-25T06:23:03;5.70;99.90
6822;DHT22;3449;48.728;8.968;2024-01-25T06:25:30;5.70;99.90
6822;DHT22;3449;48.728;8.968;2024-01-25T06:28:00;5.60;99.90
6822;DHT22;3449;48.728;8.968;2024-01-25T06:30:27;5.60;99.90
6822;DHT22;3449;48.728;8.968;2024-01-25T06:32:55;5.50;99.90
6822;DHT22;3449;48.728;8.968;2024-01-25T06:35:22;5.50;99.90
6822;DHT22;3449;48.728;8.968;2024-01-25T06:37:50;5.50;99.90
6822;DHT22;3449;48.728;8.968;2024-01-25T06:40:19;5.50;99.90
6822;DHT22;3449;48.728;8.968;2024-01-25T06:42:46;5.50;99.90
6822;DHT22;3449;48.728;8.968;2024-01-25T06:45:13;5.50;99.90
6822;DHT22;3449;48.728;8.968;2024-01-25T06:47:40;5.50;99.90
6822;DHT22;3449;48.728;8.968;2024-01-25T06:50:08;5.50;99.90
6822;DHT22;3449;48.728;8.968;2024-01-25T06:52:35;5.50;99.90
6822;DHT22;3449;48.728;8.968;2024-01-25T06:55:03;5.50;99.90
6822;DHT22;3449;48.728;8.968;2024-01-25T06:57:31;5.50;99.90
6822;DHT22;3449;48.728;8.968;2024-01-25T06:59:58;5.40;99.90
6822;DHT22;3449;48.728;8.968;2024-01-25T07:02:25;5.40;99.90
6822;DHT22;3449;48.728;8.968;2024-01-25T07:04:53;5.40;99.90
6822;DHT22;3449;48.728;8.968;2024-01-25T07:07:21;5.40;99.90
6822;DHT22;3449;48.728;8.968;2024-01-25T07:09:49;5.40;99.90
6822;DHT22;3449;48.728;8.968;2024-01-25T07:12:16;5.40;99.90
6822;DHT22;3449;48.728;8.968;2024-01-25T07:14:44;5.40;99.90
6822;DHT22;3449;48.728;8.968;2024-01-25T07:17:12;5.30;99.90
6822;DHT22;3449;48.728;8.968;2024-01-25T07:19:38;5.30;99.90
6822;DHT22;3449;48.728;8.968;2024-01-25T07:22:05;5.30;99.90
6822;DHT22;3449;48.728;8.968;2024-01-25T07:24:33;5.30;99.90
6822;DHT22;3449;48.728;8.968;2024-01-25T07:27:00;5.20;99.90
6822;DHT22;3449;48.728;8.968;2024-01-25T07:29:26;5.30;99.90
6822;DHT22;3449;48.728;8.968;2024-01-25T07:31:55;5.20;99.90
6822;DHT22;3449;48.728;8.968;2024-01-25T07:34:23;5.20;99.90
6822;DHT22;3449;48.728;8.968;2024-01-25T07:36:50;5.30;99.90
6822;DHT22;3449;48.728;8.968;2024-01-25T07:39:17;5.20;99.90
6822;DHT22;3449;48.728;8.968;2024-01-25T07:41:44;5.20;99.90
6822;DHT22;3449;48.728;8.968;2024-01-25T07:44:11;5.20;99.90
6822;DHT22;3449;48.728;8.968;2024-01-25T07:46:38;5.20;99.90
6822;DHT22;3449;48.728;8.968;2024-01-25T07:49:07;5.20;99.90
6822;DHT22;3449;48.728;8.968;2024-01-25T07:51:33;5.30;99.90
6822;DHT22;3449;48.728;8.968;2024-01-25T07:54:00;5.40;99.90
6822;DHT22;3449;48.728;8.968;2024-01-25T07:56:28;5.60;99.90
6822;DHT22;3449;48.728;8.968;2024-01-25T07:58:55;5.70;99.90
6822;DHT22;3449;48.728;8.968;2024-01-25T08:01:22;5.90;99.90
6822;DHT22;3449;48.728;8.968;2024-01-25T08:03:48;6.20;99.90
6822;DHT22;3449;48.728;8.968;2024-01-25T08:06:17;6.40;99.90
6822;DHT22;3449;48.728;8.968;2024-01-25T08:08:44;6.40;99.90
6822;DHT22;3449;48.728;8.968;2024-01-25T08:11:11;6.70;99.90
6822;DHT22;3449;48.728;8.968;2024-01-25T08:13:37;6.80;99.90
6822;DHT22;3449;48.728;8.968;2024-01-25T08:16:09;7.00;99.90
6822;DHT22;3449;48.728;8.968;2024-01-25T08:18:36;7.20;99.90
6822;DHT22;3449;48.728;8.968;2024-01-25T08:21:03;7.30;99.90
6822;DHT22;3449;48.728;8.968;2024-01-25T08:23:32;7.30;99.90
6822;DHT22;3449;48.728;8.968;2024-01-25T08:25:59;7.40;99.90
6822;DHT22;3449;48.728;8.968;2024-01-25T08:28:25;7.50;99.90
6822;DHT22;3449;48.728;8.968;2024-01-25T08:30:52;7.60;99.90
6822;DHT22;3449;48.728;8.968;2024-01-25T08:33:19;7.70;92.90
6822;DHT22;3449;48.728;8.968;2024-01-25T08:35:46;7.60;94.20
6822;DHT22;3449;48.728;8.968;2024-01-25T08:38:12;7.60;98.20
6822;DHT22;3449;48.728;8.968;2024-01-25T08:40:41;7.50;99.90
6822;DHT22;3449;48.728;8.968;2024-01-25T08:43:08;7.60;99.90
6822;DHT22;3449;48.728;8.968;2024-01-25T08:45:34;7.60;99.90
6822;DHT22;3449;48.728;8.968;2024-01-25T08:48:02;7.70;99.90
6822;DHT22;3449;48.728;8.968;2024-01-25T08:50:29;7.80;91.30
6822;DHT22;3449;48.728;8.968;2024-01-25T08:52:56;7.80;85.60
6822;DHT22;3449;48.728;8.968;2024-01-25T08:55:23;7.90;93.50
6822;DHT22;3449;48.728;8.968;2024-01-25T08:57:51;8.10;90.20
6822;DHT22;3449;48.728;8.968;2024-01-25T09:00:18;8.20;1.00
6822;DHT22;3449;48.728;8.968;2024-01-25T09:02:45;8.20;1.00
6822;DHT22;3449;48.728;8.968;2024-01-25T09:05:12;8.30;1.00
6822;DHT22;3449;48.728;8.968;2024-01-25T09:07:39;8.30;1.00
6822;DHT22;3449;48.728;8.968;2024-01-25T09:10:06;8.30;1.00
6822;DHT22;3449;48.728;8.968;2024-01-25T09:12:34;8.30;1.00
6822;DHT22;3449;48.728;8.968;2024-01-25T09:15:03;8.40;1.00
6822;DHT22;3449;48.728;8.968;2024-01-25T09:17:30;8.40;1.00
6822;DHT22;3449;48.728;8.968;2024-01-25T09:19:57;8.50;1.00
6822;DHT22;3449;48.728;8.968;2024-01-25T09:22:25;8.60;1.00
6822;DHT22;3449;48.728;8.968;2024-01-25T09:24:53;8.80;1.00
6822;DHT22;3449;48.728;8.968;2024-01-25T09:27:20;9.00;99.90
6822;DHT22;3449;48.728;8.968;2024-01-25T09:29:46;9.20;99.90
6822;DHT22;3449;48.728;8.968;2024-01-25T09:32:15;9.40;1.00
6822;DHT22;3449;48.728;8.968;2024-01-25T09:34:42;9.30;89.80
6822;DHT22;3449;48.728;8.968;2024-01-25T09:37:09;9.30;1.00
6822;DHT22;3449;48.728;8.968;2024-01-25T09:39:35;9.20;1.00
6822;DHT22;3449;48.728;8.968;2024-01-25T09:42:03;9.20;1.00
6822;DHT22;3449;48.728;8.968;2024-01-25T09:44:30;9.10;99.90
6822;DHT22;3449;48.728;8.968;2024-01-25T09:46:57;9.10;99.90
6822;DHT22;3449;48.728;8.968;2024-01-25T09:49:26;9.20;99.90
6822;DHT22;3449;48.728;8.968;2024-01-25T09:51:53;9.10;1.00
6822;DHT22;3449;48.728;8.968;2024-01-25T09:54:21;9.00;1.00
6822;DHT22;3449;48.728;8.968;2024-01-25T09:56:50;9.00;31.10
6822;DHT22;3449;48.728;8.968;2024-01-25T09:59:18;9.00;99.90
6822;DHT22;3449;48.728;8.968;2024-01-25T10:01:44;9.00;99.90
6822;DHT22;3449;48.728;8.968;2024-01-25T10:04:14;9.00;88.20
6822;DHT22;3449;48.728;8.968;2024-01-25T10:06:42;9.00;43.40
6822;DHT22;3449;48.728;8.968;2024-01-25T10:09:09;9.10;99.90
6822;DHT22;3449;48.728;8.968;2024-01-25T10:11:35;9.20;99.90
6822;DHT22;3449;48.728;8.968;2024-01-25T10:14:03;9.40;1.00
6822;DHT22;3449;48.728;8.968;2024-01-25T10:16:30;9.50;96.40
6822;DHT22;3449;48.728;8.968;2024-01-25T10:18:57;9.70;99.90
6822;DHT22;3449;48.728;8.968;2024-01-25T10:21:24;9.90;1.00
6822;DHT22;3449;48.728;8.968;2024-01-25T10:23:55;9.90;99.90
6822;DHT22;3449;48.728;8.968;2024-01-25T10:26:26;10.00;99.90
6822;DHT22;3449;48.728;8.968;2024-01-25T10:28:54;10.30;99.90
6822;DHT22;3449;48.728;8.968;2024-01-25T10:31:23;10.50;1.00
6822;DHT22;3449;48.728;8.968;2024-01-25T10:33:51;10.60;1.00
6822;DHT22;3449;48.728;8.968;2024-01-25T10:36:20;10.70;1.00
6822;DHT22;3449;48.728;8.968;2024-01-25T10:38:48;10.70;1.00
6822;DHT22;3449;48.728;8.968;2024-01-25T10:41:17;10.60;99.90
6822;DHT22;3449;48.728;8.968;2024-01-25T10:43:46;10.50;1.00
6822;DHT22;3449;48.728;8.968;2024-01-25T10:46:12;10.60;1.00
6822;DHT22;3449;48.728;8.968;2024-01-25T10:48:40;11.00;1.00
6822;DHT22;3449;48.728;8.968;2024-01-25T10:51:09;11.40;99.90
6822;DHT22;3449;48.728;8.968;2024-01-25T10:53:37;11.70;99.90
6822;DHT22;3449;48.728;8.968;2024-01-25T10:56:05;11.90;1.00
6822;DHT22;3449;48.728;8.968;2024-01-25T10:58:34;12.10;99.90
6822;DHT22;3449;48.728;8.968;2024-01-25T11:01:02;12.20;99.90
6822;DHT22;3449;48.728;8.968;2024-01-25T11:03:30;12.30;99.90
6822;DHT22;3449;48.728;8.968;2024-01-25T11:06:06;12.30;1.00
6822;DHT22;3449;48.728;8.968;2024-01-25T11:08:33;12.10;99.90
6822;DHT22;3449;48.728;8.968;2024-01-25T11:11:05;11.90;1.00
6822;DHT22;3449;48.728;8.968;2024-01-25T11:13:32;12.10;99.90
6822;DHT22;3449;48.728;8.968;2024-01-25T11:16:13;12.10;1.00
6822;DHT22;3449;48.728;8.968;2024-01-25T11:18:50;11.50;99.90
6822;DHT22;3449;48.728;8.968;2024-01-25T11:21:28;11.40;1.00
6822;DHT22;3449;48.728;8.968;2024-01-25T11:24:02;11.60;99.90
6822;DHT22;3449;48.728;8.968;2024-01-25T11:26:29;11.50;1.00
6822;DHT22;3449;48.728;8.968;2024-01-25T11:28:56;11.40;99.90
6822;DHT22;3449;48.728;8.968;2024-01-25T11:31:27;11.50;43.50
6822;DHT22;3449;48.728;8.968;2024-01-25T11:33:57;11.60;1.00
6822;DHT22;3449;48.728;8.968;2024-01-25T11:36:24;12.10;97.00
6822;DHT22;3449;48.728;8.968;2024-01-25T11:38:51;12.40;1.00
6822;DHT22;3449;48.728;8.968;2024-01-25T11:41:18;12.70;1.00
6822;DHT22;3449;48.728;8.968;2024-01-25T11:43:45;12.80;99.90
6822;DHT22;3449;48.728;8.968;2024-01-25T11:46:12;13.00;1.00
6822;DHT22;3449;48.728;8.968;2024-01-25T11:48:41;13.20;99.90
6822;DHT22;3449;48.728;8.968;2024-01-25T11:51:09;13.30;1.00
6822;DHT22;3449;48.728;8.968;2024-01-25T11:53:36;12.80;99.90
6822;DHT22;3449;48.728;8.968;2024-01-25T11:56:05;13.00;99.90
6822;DHT22;3449;48.728;8.968;2024-01-25T11:58:33;13.40;99.90
6822;DHT22;3449;48.728;8.968;2024-01-25T12:01:00;13.70;1.00
6822;DHT22;3449;48.728;8.968;2024-01-25T12:03:29;13.40;99.90
6822;DHT22;3449;48.728;8.968;2024-01-25T12:05:57;13.10;99.90
6822;DHT22;3449;48.728;8.968;2024-01-25T12:08:26;13.20;66.90
6822;DHT22;3449;48.728;8.968;2024-01-25T12:11:02;12.90;99.90
6822;DHT22;3449;48.728;8.968;2024-01-25T12:13:32;13.20;1.00
6822;DHT22;3449;48.728;8.968;2024-01-25T12:15:59;13.80;1.00
6822;DHT22;3449;48.728;8.968;2024-01-25T12:18:26;13.90;99.90
6822;DHT22;3449;48.728;8.968;2024-01-25T12:20:54;14.20;99.90
6822;DHT22;3449;48.728;8.968;2024-01-25T12:23:22;14.30;58.90
6822;DHT22;3449;48.728;8.968;2024-01-25T12:25:49;14.40;1.00
6822;DHT22;3449;48.728;8.968;2024-01-25T12:28:16;14.50;42.90
6822;DHT22;3449;48.728;8.968;2024-01-25T12:30:42;14.30;73.70
6822;DHT22;3449;48.728;8.968;2024-01-25T12:33:09;13.70;91.60
6822;DHT22;3449;48.728;8.968;2024-01-25T12:35:37;14.00;99.90
6822;DHT22;3449;48.728;8.968;2024-01-25T12:38:04;13.80;99.90
6822;DHT22;3449;48.728;8.968;2024-01-25T12:40:32;13.60;99.90
6822;DHT22;3449;48.728;8.968;2024-01-25T12:42:59;13.70;99.90
6822;DHT22;3449;48.728;8.968;2024-01-25T12:45:26;13.90;99.90
6822;DHT22;3449;48.728;8.968;2024-01-25T12:47:52;13.90;99.90
6822;DHT22;3449;48.728;8.968;2024-01-25T12:50:25;14.10;99.90
6822;DHT22;3449;48.728;8.968;2024-01-25T12:52:52;14.30;1.00
6822;DHT22;3449;48.728;8.968;2024-01-25T12:55:19;14.80;1.00
6822;DHT22;3449;48.728;8.968;2024-01-25T12:57:47;14.90;1.00
6822;DHT22;3449;48.728;8.968;2024-01-25T13:00:15;14.90;1.00
6822;DHT22;3449;48.728;8.968;2024-01-25T13:02:42;15.00;1.00
6822;DHT22;3449;48.728;8.968;2024-01-25T13:05:08;15.00;99.90
6822;DHT22;3449;48.728;8.968;2024-01-25T13:07:35;15.00;1.00
6822;DHT22;3449;48.728;8.968;2024-01-25T13:10:02;15.00;1.00
6822;DHT22;3449;48.728;8.968;2024-01-25T13:12:29;15.10;1.00
6822;DHT22;3449;48.728;8.968;2024-01-25T13:14:57;14.80;1.00
6822;DHT22;3449;48.728;8.968;2024-01-25T13:17:24;14.60;1.00
6822;DHT22;3449;48.728;8.968;2024-01-25T13:19:53;14.30;1.00
6822;DHT22;3449;48.728;8.968;2024-01-25T13:22:20;14.00;1.00
6822;DHT22;3449;48.728;8.968;2024-01-25T13:24:48;13.90;1.00
6822;DHT22;3449;48.728;8.968;2024-01-25T13:27:14;13.90;1.00
6822;DHT22;3449;48.728;8.968;2024-01-25T13:29:41;13.80;99.90
6822;DHT22;3449;48.728;8.968;2024-01-25T13:32:09;13.70;1.00
6822;DHT22;3449;48.728;8.968;2024-01-25T13:34:36;13.40;34.50
6822;DHT22;3449;48.728;8.968;2024-01-25T13:37:03;13.00;99.90
6822;DHT22;3449;48.728;8.968;2024-01-25T13:39:30;12.70;1.00
6822;DHT22;3449;48.728;8.968;2024-01-25T13:41:57;12.40;1.00
6822;DHT22;3449;48.728;8.968;2024-01-25T13:44:24;12.10;1.00
6822;DHT22;3449;48.728;8.968;2024-01-25T13:46:51;11.90;45.50
6822;DHT22;3449;48.728;8.968;2024-01-25T13:49:19;11.70;99.90
6822;DHT22;3449;48.728;8.968;2024-01-25T13:51:46;11.70;1.00
6822;DHT22;3449;48.728;8.968;2024-01-25T13:54:13;11.50;99.90
6822;DHT22;3449;48.728;8.968;2024-01-25T13:56:40;11.40;1.00
6822;DHT22;3449;48.728;8.968;2024-01-25T13:59:06;11.30;80.50
6822;DHT22;3449;48.728;8.968;2024-01-25T14:01:33;11.30;99.90
6822;DHT22;3449;48.728;8.968;2024-01-25T14:04:00;11.20;1.00
6822;DHT22;3449;48.728;8.968;2024-01-25T14:06:28;11.30;99.90
6822;DHT22;3449;48.728;8.968;2024-01-25T14:08:55;11.20;99.90
6822;DHT22;3449;48.728;8.968;2024-01-25T14:11:22;11.20;1.00
6822;DHT22;3449;48.728;8.968;2024-01-25T14:13:49;11.20;1.00
6822;DHT22;3449;48.728;8.968;2024-01-25T14:16:16;11.20;99.90
6822;DHT22;3449;48.728;8.968;2024-01-25T14:18:43;11.20;1.00
6822;DHT22;3449;48.728;8.968;2024-01-25T14:21:10;11.20;99.90
6822;DHT22;3449;48.728;8.968;2024-01-25T14:23:38;11.20;99.90
6822;DHT22;3449;48.728;8.968;2024-01-25T14:26:05;11.20;1.00
6822;DHT22;3449;48.728;8.968;2024-01-25T14:28:32;11.10;99.90
6822;DHT22;3449;48.728;8.968;2024-01-25T14:30:59;11.10;99.90
6822;DHT22;3449;48.728;8.968;2024-01-25T14:33:25;11.00;99.90
6822;DHT22;3449;48.728;8.968;2024-01-25T14:35:52;11.00;92.10
6822;DHT22;3449;48.728;8.968;2024-01-25T14:38:19;11.00;99.90
6822;DHT22;3449;48.728;8.968;2024-01-25T14:40:47;11.00;99.90
6822;DHT22;3449;48.728;8.968;2024-01-25T14:43:14;10.90;99.90
6822;DHT22;3449;48.728;8.968;2024-01-25T14:45:42;10.90;99.90
6822;DHT22;3449;48.728;8.968;2024-01-25T14:48:09;10.90;99.90
6822;DHT22;3449;48.728;8.968;2024-01-25T14:50:35;10.80;1.00
6822;DHT22;3449;48.728;8.968;2024-01-25T14:53:02;10.70;1.00
6822;DHT22;3449;48.728;8.968;2024-01-25T14:55:29;10.60;1.00
6822;DHT22;3449;48.728;8.968;2024-01-25T14:57:57;10.60;94.80
6822;DHT22;3449;48.728;8.968;2024-01-25T15:00:24;10.50;1.00
6822;DHT22;3449;48.728;8.968;2024-01-25T15:02:51;10.50;99.90
6822;DHT22;3449;48.728;8.968;2024-01-25T15:05:18;10.40;99.90
6822;DHT22;3449;48.728;8.968;2024-01-25T15:07:45;10.40;99.90
6822;DHT22;3449;48.728;8.968;2024-01-25T15:10:12;10.30;99.90
6822;DHT22;3449;48.728;8.968;2024-01-25T15:12:38;10.30;1.00
6822;DHT22;3449;48.728;8.968;2024-01-25T15:15:09;10.20;99.90
6822;DHT22;3449;48.728;8.968;2024-01-25T15:17:36;10.10;99.90
6822;DHT22;3449;48.728;8.968;2024-01-25T15:20:04;10.10;1.00
6822;DHT22;3449;48.728;8.968;2024-01-25T15:22:31;10.10;6.50
6822;DHT22;3449;48.728;8.968;2024-01-25T15:24:58;10.00;99.90
6822;DHT22;3449;48.728;8.968;2024-01-25T15:27:25;10.00;1.00
6822;DHT22;3449;48.728;8.968;2024-01-25T15:29:51;9.90;1.00
6822;DHT22;3449;48.728;8.968;2024-01-25T15:32:19;9.90;1.00
6822;DHT22;3449;48.728;8.968;2024-01-25T15:34:46;9.80;99.90
6822;DHT22;3449;48.728;8.968;2024-01-25T15:37:13;9.80;1.00
6822;DHT22;3449;48.728;8.968;2024-01-25T15:39:40;9.70;1.00
6822;DHT22;3449;48.728;8.968;2024-01-25T15:42:09;9.60;32.40
6822;DHT22;3449;48.728;8.968;2024-01-25T15:44:36;9.50;1.00
6822;DHT22;3449;48.728;8.968;2024-01-25T15:47:03;9.50;5.30
6822;DHT22;3449;48.728;8.968;2024-01-25T15:49:31;9.40;99.90
6822;DHT22;3449;48.728;8.968;2024-01-25T15:51:58;9.40;99.90
6822;DHT22;3449;48.728;8.968;2024-01-25T15:54:26;9.40;99.90
6822;DHT22;3449;48.728;8.968;2024-01-25T15:56:53;9.30;99.90
6822;DHT22;3449;48.728;8.968;2024-01-25T15:59:19;9.30;99.90
6822;DHT22;3449;48.728;8.968;2024-01-25T16:01:46;9.30;99.90
6822;DHT22;3449;48.728;8.968;2024-01-25T16:04:13;9.20;99.90
6822;DHT22;3449;48.728;8.968;2024-01-25T16:06:41;9.20;99.90
6822;DHT22;3449;48.728;8.968;2024-01-25T16:09:08;9.20;99.90
6822;DHT22;3449;48.728;8.968;2024-01-25T16:11:35;9.20;99.90
6822;DHT22;3449;48.728;8.968;2024-01-25T16:14:02;9.10;99.90
6822;DHT22;3449;48.728;8.968;2024-01-25T16:16:28;9.10;99.90
6822;DHT22;3449;48.728;8.968;2024-01-25T16:18:55;9.10;99.90